Time;durP1;ratioP1;P1;durP2;ratioP2;P2;SDS_P1;SDS_P2;PMS_P1;PMS_P2;Temp;Humidity;BMP_temperature;BMP_pressure;BME280_temperature;BME280_humidity;BME280_pressure;Samples;Min_cycle;Max_cycle;Signal;HPM_P1;HPM_P2
2021/12/25 00:00:11;;;;;;;0.20;0.20;;;;;;;;;;1870446;76;26729;-52
2021/12/25 00:02:39;;;;;;;0.10;0.10;;;;;;;;;;1884402;76;26270;-52
2021/12/25 00:05:06;;;;;;;0.47;0.33;;;;;;;;;;1876642;76;26804;-54
2021/12/25 00:07:34;;;;;;;0.10;0.10;;;;;;;;;;1880207;76;26261;-52
2021/12/25 00:10:01;;;;;;;0.10;0.10;;;;;;;;;;1875737;75;26269;-52
2021/12/25 00:12:29;;;;;;;0.20;0.20;;;;;;;;;;1892481;75;26277;-51
2021/12/25 00:14:56;;;;;;;0.20;0.20;;;;;;;;;;1883543;75;26320;-51
2021/12/25 00:17:26;;;;;;;0.20;0.20;;;;;;;;;;1880926;76;26274;-49
2021/12/25 00:19:56;;;;;;;0.20;0.20;;;;;;;;;;1880691;76;26769;-50
2021/12/25 00:22:23;;;;;;;0.55;0.20;;;;;;;;;;1873489;76;26325;-51
2021/12/25 00:24:51;;;;;;;0.28;0.28;;;;;;;;;;1868245;77;26238;-48
2021/12/25 00:30:47;;;;;;;0.10;0.10;;;;;;;;;;1880765;76;26313;-51
2021/12/25 00:35:10;;;;;;;0.10;0.10;;;;;;;;;;1880839;76;26761;-48
2021/12/25 00:37:38;;;;;;;0.28;0.28;;;;;;;;;;1881011;76;26886;-48
2021/12/25 00:40:06;;;;;;;0.20;0.20;;;;;;;;;;1881064;76;26207;-52
2021/12/25 00:42:33;;;;;;;0.00;0.00;;;;;;;;;;1888997;75;26702;-51
2021/12/25 00:45:00;;;;;;;0.15;0.15;;;;;;;;;;1879854;75;26662;-50
2021/12/25 00:47:28;;;;;;;0.10;0.10;;;;;;;;;;1873962;76;25299;-52
2021/12/25 00:49:55;;;;;;;0.20;0.20;;;;;;;;;;1873812;76;26282;-48
2021/12/25 00:52:22;;;;;;;0.10;0.10;;;;;;;;;;1873945;76;26332;-49
2021/12/25 00:54:50;;;;;;;0.10;0.10;;;;;;;;;;1873857;76;26210;-48
2021/12/25 00:57:17;;;;;;;0.20;0.20;;;;;;;;;;1873831;76;26266;-52
2021/12/25 00:59:44;;;;;;;0.15;0.15;;;;;;;;;;1872949;76;26273;-51
2021/12/25 01:02:11;;;;;;;0.20;0.20;;;;;;;;;;1875388;76;26257;-48
2021/12/25 01:04:39;;;;;;;0.10;0.10;;;;;;;;;;1869679;76;26318;-53
2021/12/25 01:07:07;;;;;;;0.10;0.10;;;;;;;;;;1854795;77;26274;-50
2021/12/25 01:09:34;;;;;;;0.10;0.10;;;;;;;;;;1844856;78;26267;-49
2021/12/25 01:12:02;;;;;;;0.10;0.10;;;;;;;;;;1853954;75;26767;-51
2021/12/25 01:17:27;;;;;;;0.13;0.13;;;;;;;;;;1878328;76;26272;-52
2021/12/25 01:20:08;;;;;;;0.20;0.20;;;;;;;;;;1876108;76;26299;-49
2021/12/25 01:35:45;;;;;;;0.17;0.17;;;;;;;;;;1870046;76;26928;-49
2021/12/25 01:38:24;;;;;;;0.10;0.10;;;;;;;;;;1865459;76;26289;-51
2021/12/25 01:48:40;;;;;;;0.82;0.10;;;;;;;;;;1881055;76;26638;-51
2021/12/25 01:51:07;;;;;;;0.10;0.10;;;;;;;;;;1879839;75;26735;-50
2021/12/25 01:53:34;;;;;;;0.20;0.20;;;;;;;;;;1878318;76;26280;-52
2021/12/25 01:56:03;;;;;;;0.17;0.10;;;;;;;;;;1878136;76;26691;-55
2021/12/25 01:58:30;;;;;;;0.08;0.08;;;;;;;;;;1875323;76;26288;-49
2021/12/25 02:00:58;;;;;;;0.10;0.10;;;;;;;;;;1873312;76;27350;-52
2021/12/25 02:03:27;;;;;;;0.23;0.23;;;;;;;;;;1874181;76;26257;-49
2021/12/25 02:05:56;;;;;;;0.30;0.30;;;;;;;;;;1877205;76;26226;-51
2021/12/25 02:08:24;;;;;;;0.25;0.25;;;;;;;;;;1845354;78;26337;-50
2021/12/25 02:10:52;;;;;;;0.30;0.30;;;;;;;;;;1845532;78;26203;-50
2021/12/25 02:13:20;;;;;;;0.10;0.10;;;;;;;;;;1851748;76;26293;-54
2021/12/25 02:15:50;;;;;;;0.40;0.10;;;;;;;;;;1851967;77;26288;-50
2021/12/25 02:18:31;;;;;;;0.33;0.17;;;;;;;;;;1851514;75;26406;-49
2021/12/25 02:21:06;;;;;;;0.10;0.10;;;;;;;;;;1895667;75;26307;-53
2021/12/25 02:23:25;;;;;;;0.10;0.10;;;;;;;;;;1869478;76;26289;-51
2021/12/25 02:25:54;;;;;;;0.10;0.10;;;;;;;;;;1871271;76;26749;-53
2021/12/25 02:28:22;;;;;;;0.20;0.20;;;;;;;;;;1879264;76;26333;-48
2021/12/25 02:30:51;;;;;;;0.20;0.20;;;;;;;;;;1886097;76;27194;-54
2021/12/25 02:33:18;;;;;;;0.10;0.10;;;;;;;;;;1886012;76;26290;-50
2021/12/25 02:35:46;;;;;;;0.10;0.10;;;;;;;;;;1887522;76;26341;-49
2021/12/25 02:38:13;;;;;;;0.17;0.17;;;;;;;;;;1893202;76;26260;-53
2021/12/25 02:40:41;;;;;;;0.20;0.20;;;;;;;;;;1893774;76;27319;-49
2021/12/25 02:43:09;;;;;;;0.10;0.10;;;;;;;;;;1888902;75;26311;-52
2021/12/25 02:45:36;;;;;;;0.10;0.10;;;;;;;;;;1887258;75;27373;-50
2021/12/25 02:48:08;;;;;;;0.10;0.10;;;;;;;;;;1888273;76;26262;-51
2021/12/25 02:50:36;;;;;;;0.10;0.10;;;;;;;;;;1897520;74;26274;-54
2021/12/25 02:53:04;;;;;;;0.13;0.13;;;;;;;;;;1889916;76;26698;-50
2021/12/25 02:55:32;;;;;;;0.10;0.10;;;;;;;;;;1889454;74;27294;-52
2021/12/25 02:57:59;;;;;;;0.20;0.20;;;;;;;;;;1890165;76;26261;-55
2021/12/25 03:00:28;;;;;;;0.20;0.20;;;;;;;;;;1890022;76;26327;-54
2021/12/25 03:02:56;;;;;;;0.20;0.20;;;;;;;;;;1889031;76;26264;-52
2021/12/25 03:05:24;;;;;;;0.10;0.10;;;;;;;;;;1889232;76;26410;-49
2021/12/25 03:07:52;;;;;;;0.23;0.10;;;;;;;;;;1890386;76;26362;-49
2021/12/25 03:10:20;;;;;;;0.20;0.20;;;;;;;;;;1889951;76;26866;-49
2021/12/25 03:13:04;;;;;;;0.10;0.10;;;;;;;;;;1898409;75;26374;-48
2021/12/25 03:15:40;;;;;;;0.10;0.10;;;;;;;;;;1887154;76;25395;-49
2021/12/25 03:17:58;;;;;;;0.20;0.20;;;;;;;;;;1887545;76;26875;-52
2021/12/25 03:20:25;;;;;;;0.13;0.13;;;;;;;;;;1889101;74;26286;-52
2021/12/25 03:22:53;;;;;;;0.20;0.20;;;;;;;;;;1889766;76;27254;-49
2021/12/25 03:25:21;;;;;;;0.20;0.20;;;;;;;;;;1888937;76;26348;-52
2021/12/25 03:27:49;;;;;;;0.20;0.20;;;;;;;;;;1890290;76;26813;-50
2021/12/25 03:30:17;;;;;;;0.10;0.10;;;;;;;;;;1888656;74;26213;-49
2021/12/25 03:32:46;;;;;;;0.20;0.20;;;;;;;;;;1891899;75;26210;-48
2021/12/25 03:35:13;;;;;;;0.10;0.10;;;;;;;;;;1890246;76;26273;-52
2021/12/25 03:37:40;;;;;;;0.10;0.10;;;;;;;;;;1883988;75;26776;-51
2021/12/25 03:40:08;;;;;;;1.07;0.10;;;;;;;;;;1888896;76;25178;-51
2021/12/25 03:42:36;;;;;;;0.10;0.10;;;;;;;;;;1890414;76;26701;-50
2021/12/25 03:45:04;;;;;;;0.10;0.10;;;;;;;;;;1890238;76;26725;-52
2021/12/25 03:47:36;;;;;;;1.22;0.20;;;;;;;;;;1890240;76;26266;-51
2021/12/25 03:58:23;;;;;;;0.05;0.05;;;;;;;;;;1886408;76;26785;-50
2021/12/25 04:00:48;;;;;;;0.10;0.10;;;;;;;;;;1878213;76;26284;-49
2021/12/25 04:03:28;;;;;;;1.45;0.20;;;;;;;;;;1882659;75;26363;-52
2021/12/25 04:05:49;;;;;;;0.13;0.13;;;;;;;;;;1888684;76;26353;-50
2021/12/25 04:08:22;;;;;;;0.80;0.20;;;;;;;;;;1890041;76;26276;-52
2021/12/25 04:10:49;;;;;;;0.10;0.10;;;;;;;;;;1889063;76;26314;-49
2021/12/25 04:13:17;;;;;;;0.37;0.20;;;;;;;;;;1889760;75;26903;-55
2021/12/25 04:15:45;;;;;;;0.20;0.20;;;;;;;;;;1889436;76;26804;-49
2021/12/25 04:18:12;;;;;;;0.20;0.20;;;;;;;;;;1889421;76;26288;-51
2021/12/25 04:20:41;;;;;;;0.10;0.10;;;;;;;;;;1890410;75;26764;-51
2021/12/25 04:23:16;;;;;;;0.20;0.20;;;;;;;;;;1889073;76;26363;-53
2021/12/25 04:25:38;;;;;;;0.20;0.20;;;;;;;;;;1887786;76;26867;-50
2021/12/25 04:28:21;;;;;;;0.10;0.10;;;;;;;;;;1885858;76;26261;-53
2021/12/25 04:42:44;;;;;;;0.47;0.17;;;;;;;;;;1883646;75;26263;-49
2021/12/25 05:03:42;;;;;;;0.20;0.20;;;;;;;;;;1864640;76;26872;-51
2021/12/25 05:06:01;;;;;;;0.10;0.10;;;;;;;;;;1877910;76;26703;-51
2021/12/25 05:08:28;;;;;;;0.23;0.10;;;;;;;;;;1879073;75;26269;-51
2021/12/25 05:10:57;;;;;;;0.93;0.10;;;;;;;;;;1872372;75;26219;-50
2021/12/25 05:13:24;;;;;;;0.20;0.20;;;;;;;;;;1880620;76;26308;-50
2021/12/25 05:15:52;;;;;;;0.25;0.20;;;;;;;;;;1880839;76;26218;-49
2021/12/25 05:18:19;;;;;;;0.10;0.10;;;;;;;;;;1880823;76;26760;-49
2021/12/25 05:20:47;;;;;;;0.10;0.10;;;;;;;;;;1878490;75;26312;-50
2021/12/25 05:23:14;;;;;;;0.10;0.10;;;;;;;;;;1870402;76;26780;-54
2021/12/25 05:25:42;;;;;;;0.20;0.20;;;;;;;;;;1870700;76;26285;-51
2021/12/25 05:28:09;;;;;;;0.10;0.10;;;;;;;;;;1874804;76;26777;-51
2021/12/25 05:30:37;;;;;;;0.10;0.10;;;;;;;;;;1879591;76;26323;-51
2021/12/25 05:33:05;;;;;;;0.10;0.10;;;;;;;;;;1875587;76;26312;-55
2021/12/25 05:35:32;;;;;;;0.35;0.10;;;;;;;;;;1875544;76;26301;-55
2021/12/25 05:38:00;;;;;;;0.10;0.10;;;;;;;;;;1875810;76;26807;-54
2021/12/25 05:40:28;;;;;;;0.13;0.13;;;;;;;;;;1868476;76;26330;-50
2021/12/25 05:42:55;;;;;;;0.23;0.23;;;;;;;;;;1854596;77;26643;-52
2021/12/25 05:45:22;;;;;;;0.10;0.10;;;;;;;;;;1878950;76;26265;-51
2021/12/25 05:47:50;;;;;;;0.65;0.10;;;;;;;;;;1886241;76;26319;-55
2021/12/25 05:50:17;;;;;;;0.10;0.10;;;;;;;;;;1886361;75;26246;-53
2021/12/25 05:52:44;;;;;;;0.10;0.10;;;;;;;;;;1856892;77;26716;-49
2021/12/25 05:55:12;;;;;;;0.20;0.20;;;;;;;;;;1856639;77;26265;-51
2021/12/25 05:57:39;;;;;;;0.15;0.10;;;;;;;;;;1863646;76;26301;-49
2021/12/25 06:00:08;;;;;;;0.10;0.10;;;;;;;;;;1879838;76;26295;-54
2021/12/25 06:02:36;;;;;;;0.15;0.15;;;;;;;;;;1879800;76;26863;-51
2021/12/25 06:05:06;;;;;;;0.00;0.00;;;;;;;;;;1889469;76;26829;-52
2021/12/25 06:07:34;;;;;;;0.10;0.10;;;;;;;;;;1890187;76;26616;-49
2021/12/25 06:10:03;;;;;;;0.25;0.25;;;;;;;;;;1890509;75;26272;-53
2021/12/25 06:12:30;;;;;;;0.10;0.10;;;;;;;;;;1910601;75;26262;-50
2021/12/25 06:15:00;;;;;;;0.15;0.15;;;;;;;;;;1911484;75;26892;-51
2021/12/25 06:17:27;;;;;;;0.10;0.10;;;;;;;;;;1910837;75;26333;-51
2021/12/25 06:19:54;;;;;;;0.20;0.20;;;;;;;;;;1911388;75;26348;-51
2021/12/25 06:22:22;;;;;;;0.10;0.10;;;;;;;;;;1896934;75;26326;-49
2021/12/25 06:24:49;;;;;;;0.20;0.20;;;;;;;;;;1887950;76;26268;-53
2021/12/25 06:27:17;;;;;;;0.10;0.10;;;;;;;;;;1887094;76;26671;-52
2021/12/25 06:29:45;;;;;;;0.10;0.10;;;;;;;;;;1885954;75;26319;-51
2021/12/25 06:32:13;;;;;;;0.15;0.15;;;;;;;;;;1870763;75;26191;-51
2021/12/25 06:34:41;;;;;;;0.90;0.10;;;;;;;;;;1858157;76;26248;-52
2021/12/25 06:37:08;;;;;;;0.10;0.10;;;;;;;;;;1876060;76;27517;-55
2021/12/25 06:39:38;;;;;;;0.10;0.10;;;;;;;;;;1885732;76;26298;-54
2021/12/25 06:42:06;;;;;;;0.00;0.00;;;;;;;;;;1879607;76;26364;-50
2021/12/25 06:44:33;;;;;;;0.10;0.10;;;;;;;;;;1879292;75;26243;-51
2021/12/25 06:47:01;;;;;;;0.20;0.20;;;;;;;;;;1876080;76;26749;-51
2021/12/25 06:49:28;;;;;;;0.10;0.10;;;;;;;;;;1879260;76;25837;-55
2021/12/25 06:51:56;;;;;;;0.10;0.10;;;;;;;;;;1878822;75;26280;-49
2021/12/25 06:54:23;;;;;;;0.03;0.03;;;;;;;;;;1878597;76;26795;-51
2021/12/25 06:56:50;;;;;;;0.30;0.30;;;;;;;;;;1877182;76;26321;-51
2021/12/25 06:59:21;;;;;;;0.98;0.10;;;;;;;;;;1853770;77;26369;-68
2021/12/25 07:01:48;;;;;;;0.20;0.20;;;;;;;;;;1872890;76;26379;-50
2021/12/25 07:04:15;;;;;;;0.20;0.20;;;;;;;;;;1874456;75;26405;-57
2021/12/25 07:06:43;;;;;;;0.17;0.17;;;;;;;;;;1869360;76;26817;-50
2021/12/25 07:09:10;;;;;;;0.70;0.28;;;;;;;;;;1871508;76;26279;-53
2021/12/25 07:11:38;;;;;;;1.40;0.20;;;;;;;;;;1864963;75;26374;-52
2021/12/25 07:14:08;;;;;;;0.20;0.20;;;;;;;;;;1868363;76;25197;-50
2021/12/25 07:16:35;;;;;;;0.85;0.20;;;;;;;;;;1878811;76;26377;-51
2021/12/25 07:19:02;;;;;;;0.10;0.10;;;;;;;;;;1879651;76;26199;-51
2021/12/25 07:21:30;;;;;;;1.30;0.23;;;;;;;;;;1879466;76;26258;-52
2021/12/25 07:23:58;;;;;;;0.98;0.10;;;;;;;;;;1879413;76;26238;-51
2021/12/25 07:26:27;;;;;;;1.95;0.20;;;;;;;;;;1878200;76;26293;-51
2021/12/25 07:28:54;;;;;;;0.10;0.10;;;;;;;;;;1875489;76;26731;-49
2021/12/25 07:31:22;;;;;;;0.28;0.17;;;;;;;;;;1878797;76;26266;-52
2021/12/25 07:33:49;;;;;;;1.07;0.25;;;;;;;;;;1877732;76;26349;-50
2021/12/25 07:36:16;;;;;;;0.62;0.20;;;;;;;;;;1875682;75;26188;-56
2021/12/25 07:38:44;;;;;;;1.82;0.50;;;;;;;;;;1872968;75;26247;-49
2021/12/25 07:41:11;;;;;;;0.57;0.30;;;;;;;;;;1886626;75;26706;-52
2021/12/25 07:43:38;;;;;;;2.70;0.40;;;;;;;;;;1889730;76;26553;-52
2021/12/25 07:46:06;;;;;;;1.45;0.20;;;;;;;;;;1889853;75;26234;-49
2021/12/25 07:48:34;;;;;;;0.55;0.40;;;;;;;;;;1876569;74;26296;-52
2021/12/25 07:51:06;;;;;;;1.02;0.28;;;;;;;;;;1907936;74;26238;-52
2021/12/25 07:53:32;;;;;;;1.80;0.20;;;;;;;;;;1907185;74;26859;-50
2021/12/25 07:55:59;;;;;;;0.55;0.33;;;;;;;;;;1917150;75;26315;-54
2021/12/25 07:58:27;;;;;;;0.42;0.20;;;;;;;;;;1873992;76;27012;-51
2021/12/25 08:00:54;;;;;;;0.72;0.30;;;;;;;;;;1888254;74;26331;-49
2021/12/25 08:03:22;;;;;;;0.35;0.35;;;;;;;;;;1889548;74;26768;-53
2021/12/25 08:05:49;;;;;;;1.25;0.30;;;;;;;;;;1867450;74;26321;-51
2021/12/25 08:08:17;;;;;;;1.55;0.40;;;;;;;;;;1884863;74;26752;-52
2021/12/25 08:10:44;;;;;;;0.55;0.20;;;;;;;;;;1879354;74;26278;-50
2021/12/25 08:13:13;;;;;;;6.42;0.47;;;;;;;;;;1879137;74;26866;-52
2021/12/25 08:15:42;;;;;;;0.57;0.20;;;;;;;;;;1870368;76;26292;-51
2021/12/25 08:18:09;;;;;;;3.15;0.40;;;;;;;;;;1863473;74;26327;-54
2021/12/25 08:20:37;;;;;;;3.92;0.40;;;;;;;;;;1884042;74;28131;-42
2021/12/25 08:23:05;;;;;;;2.95;0.50;;;;;;;;;;1880251;74;26335;-43
2021/12/25 08:25:32;;;;;;;2.20;0.72;;;;;;;;;;1892574;74;26930;-43
2021/12/25 08:28:00;;;;;;;3.47;0.40;;;;;;;;;;1873556;74;26713;-42
2021/12/25 08:30:28;;;;;;;2.27;0.30;;;;;;;;;;1881365;74;26340;-42
2021/12/25 08:32:58;;;;;;;1.70;0.50;;;;;;;;;;1887618;74;26701;-42
2021/12/25 08:35:27;;;;;;;2.35;0.37;;;;;;;;;;1869623;74;26264;-42
2021/12/25 08:37:54;;;;;;;3.35;0.40;;;;;;;;;;1858259;77;26210;-42
2021/12/25 08:40:23;;;;;;;1.02;0.40;;;;;;;;;;1883715;74;26273;-42
2021/12/25 08:42:56;;;;;;;2.95;0.50;;;;;;;;;;1888468;76;25406;-42
2021/12/25 08:48:02;;;;;;;2.98;0.50;;;;;;;;;;1885863;74;26336;-43
2021/12/25 08:50:30;;;;;;;2.52;0.60;;;;;;;;;;1887967;74;26270;-42
2021/12/25 08:52:57;;;;;;;1.27;0.60;;;;;;;;;;1888917;74;26261;-42
2021/12/25 08:55:26;;;;;;;2.25;0.60;;;;;;;;;;1891189;74;26340;-42
2021/12/25 08:57:54;;;;;;;1.27;0.80;;;;;;;;;;1889563;74;26273;-41
2021/12/25 09:00:22;;;;;;;2.15;0.90;;;;;;;;;;1889671;74;26410;-42
2021/12/25 09:02:49;;;;;;;3.05;1.07;;;;;;;;;;1890325;74;26273;-42
2021/12/25 09:05:17;;;;;;;3.72;1.07;;;;;;;;;;1889878;74;26716;-42
2021/12/25 09:07:44;;;;;;;1.10;1.10;;;;;;;;;;1903216;74;26259;-42
2021/12/25 09:10:11;;;;;;;1.12;0.90;;;;;;;;;;1892833;74;26953;-41
2021/12/25 09:12:45;;;;;;;4.20;1.05;;;;;;;;;;1890477;75;26253;-42
2021/12/25 09:15:08;;;;;;;1.77;1.12;;;;;;;;;;1888279;76;26368;-42
2021/12/25 09:17:36;;;;;;;2.33;1.17;;;;;;;;;;1889392;76;26257;-42
2021/12/25 09:20:04;;;;;;;1.85;1.30;;;;;;;;;;1889470;74;26242;-43
2021/12/25 09:22:31;;;;;;;1.75;1.40;;;;;;;;;;1889423;76;26297;-42
2021/12/25 09:24:58;;;;;;;5.55;1.57;;;;;;;;;;1886506;74;26313;-42
2021/12/25 09:27:25;;;;;;;6.62;1.50;;;;;;;;;;1886130;74;26343;-42
2021/12/25 09:29:53;;;;;;;2.90;1.40;;;;;;;;;;1887315;74;26328;-42
2021/12/25 09:32:20;;;;;;;2.35;1.60;;;;;;;;;;1886938;74;26295;-42
2021/12/25 09:34:48;;;;;;;1.90;1.37;;;;;;;;;;1890846;76;26234;-41
2021/12/25 09:37:15;;;;;;;7.03;2.02;;;;;;;;;;1890706;76;26211;-42
2021/12/25 09:39:42;;;;;;;3.02;1.82;;;;;;;;;;1889586;74;26260;-42
2021/12/25 09:42:10;;;;;;;3.60;1.65;;;;;;;;;;1882970;76;26309;-43
2021/12/25 09:44:38;;;;;;;3.00;1.70;;;;;;;;;;1897956;75;26722;-42
2021/12/25 09:47:05;;;;;;;5.37;2.22;;;;;;;;;;1865344;75;26259;-42
2021/12/25 09:49:33;;;;;;;4.20;1.65;;;;;;;;;;1877532;75;26204;-42
2021/12/25 09:52:01;;;;;;;2.90;1.60;;;;;;;;;;1881970;75;26754;-41
2021/12/25 09:54:28;;;;;;;3.47;1.75;;;;;;;;;;1881162;75;26190;-42
2021/12/25 09:56:58;;;;;;;4.53;1.77;;;;;;;;;;1880168;75;26250;-42
2021/12/25 09:59:26;;;;;;;1.62;1.47;;;;;;;;;;1884098;75;26734;-42
2021/12/25 10:01:55;;;;;;;5.35;1.62;;;;;;;;;;1879688;75;26295;-42
2021/12/25 10:04:32;;;;;;;3.70;1.60;;;;;;;;;;1883451;75;26274;-43
2021/12/25 10:07:01;;;;;;;1.95;1.50;;;;;;;;;;1892086;75;26259;-41
2021/12/25 10:09:28;;;;;;;1.62;1.00;;;;;;;;;;1875582;75;26320;-42
2021/12/25 10:12:00;;;;;;;4.25;1.57;;;;;;;;;;1874614;75;26259;-42
2021/12/25 10:14:28;;;;;;;2.77;1.30;;;;;;;;;;1869015;75;27313;-42
2021/12/25 10:16:55;;;;;;;2.83;1.60;;;;;;;;;;1877605;75;26380;-42
2021/12/25 10:19:27;;;;;;;3.33;1.17;;;;;;;;;;1876910;75;26321;-43
2021/12/25 10:22:10;;;;;;;3.83;1.45;;;;;;;;;;1895992;75;26397;-43
2021/12/25 10:24:49;;;;;;;2.20;1.20;;;;;;;;;;1884643;75;26234;-44
2021/12/25 10:27:11;;;;;;;2.52;1.32;;;;;;;;;;1879007;75;26803;-42
2021/12/25 10:29:39;;;;;;;2.27;1.10;;;;;;;;;;1883799;75;26334;-42
2021/12/25 10:32:17;;;;;;;2.08;1.15;;;;;;;;;;1878712;75;26202;-43
2021/12/25 10:34:45;;;;;;;5.12;1.22;;;;;;;;;;1880883;76;26267;-42
2021/12/25 10:37:13;;;;;;;3.30;0.98;;;;;;;;;;1876559;75;26235;-42
2021/12/25 10:39:41;;;;;;;2.52;0.90;;;;;;;;;;1880013;75;26235;-43
2021/12/25 10:42:16;;;;;;;1.40;0.88;;;;;;;;;;1873316;75;26293;-43
2021/12/25 10:44:43;;;;;;;2.83;1.10;;;;;;;;;;1873476;76;26377;-42
2021/12/25 10:47:18;;;;;;;2.80;0.80;;;;;;;;;;1859994;76;26294;-42
2021/12/25 10:49:46;;;;;;;2.02;1.10;;;;;;;;;;1857378;76;26887;-42
2021/12/25 10:52:16;;;;;;;1.85;0.90;;;;;;;;;;1855624;76;26259;-42
2021/12/25 10:54:47;;;;;;;1.37;0.98;;;;;;;;;;1855552;77;26585;-42
2021/12/25 10:57:35;;;;;;;2.65;0.95;;;;;;;;;;1858608;76;26251;-42
2021/12/25 11:00:07;;;;;;;1.10;0.82;;;;;;;;;;1870659;76;25293;-42
2021/12/25 11:02:36;;;;;;;0.60;0.60;;;;;;;;;;1855754;76;26238;-43
2021/12/25 11:05:16;;;;;;;0.72;0.70;;;;;;;;;;1857660;76;26265;-42
2021/12/25 11:07:45;;;;;;;0.93;0.60;;;;;;;;;;1867685;76;26258;-43
2021/12/25 11:10:14;;;;;;;0.72;0.50;;;;;;;;;;1863061;76;26250;-42
2021/12/25 11:12:41;;;;;;;3.77;0.55;;;;;;;;;;1850910;76;26246;-42
2021/12/25 11:15:10;;;;;;;0.85;0.50;;;;;;;;;;1859484;76;26347;-45
2021/12/25 11:17:39;;;;;;;0.93;0.60;;;;;;;;;;1865039;76;26425;-42
2021/12/25 11:20:16;;;;;;;1.95;0.60;;;;;;;;;;1856718;77;27274;-43
2021/12/25 11:22:47;;;;;;;0.55;0.45;;;;;;;;;;1835843;77;26372;-46
2021/12/25 11:25:15;;;;;;;0.95;0.47;;;;;;;;;;1866469;76;27356;-44
2021/12/25 11:27:43;;;;;;;0.68;0.47;;;;;;;;;;1868707;76;26286;-42
2021/12/25 11:30:11;;;;;;;2.15;0.88;;;;;;;;;;1852842;76;26300;-42
2021/12/25 11:32:38;;;;;;;0.30;0.30;;;;;;;;;;1856957;76;26276;-43
2021/12/25 11:35:06;;;;;;;2.45;0.45;;;;;;;;;;1876047;76;26729;-42
2021/12/25 11:37:33;;;;;;;0.60;0.60;;;;;;;;;;1857455;76;26713;-43
2021/12/25 11:40:01;;;;;;;0.98;0.47;;;;;;;;;;1849687;77;26195;-44
2021/12/25 11:42:29;;;;;;;0.60;0.60;;;;;;;;;;1857624;76;26385;-42
2021/12/25 11:44:58;;;;;;;0.47;0.47;;;;;;;;;;1868823;75;26837;-42
2021/12/25 11:47:39;;;;;;;0.98;0.80;;;;;;;;;;1875446;75;26723;-42
2021/12/25 11:50:08;;;;;;;1.10;0.80;;;;;;;;;;1880923;75;26792;-43
2021/12/25 11:52:49;;;;;;;0.82;0.82;;;;;;;;;;1884606;76;25743;-42
2021/12/25 11:58:20;;;;;;;1.10;1.05;;;;;;;;;;1876194;75;26697;-42
2021/12/25 12:00:46;;;;;;;1.32;0.98;;;;;;;;;;1861209;75;27357;-42
2021/12/25 12:03:32;;;;;;;2.67;1.20;;;;;;;;;;1879476;75;26714;-44
2021/12/25 12:05:59;;;;;;;1.40;1.30;;;;;;;;;;1887219;75;26267;-44
2021/12/25 12:08:26;;;;;;;1.17;1.17;;;;;;;;;;1887374;75;26296;-42
2021/12/25 12:11:00;;;;;;;1.27;1.27;;;;;;;;;;1879280;75;26249;-45
2021/12/25 12:13:29;;;;;;;1.47;1.40;;;;;;;;;;1872953;75;26302;-43
2021/12/25 12:15:58;;;;;;;2.22;1.30;;;;;;;;;;1870898;75;26257;-42
2021/12/25 12:18:27;;;;;;;1.45;1.40;;;;;;;;;;1871423;75;26278;-42
2021/12/25 12:21:10;;;;;;;1.77;1.67;;;;;;;;;;1878888;75;26885;-42
2021/12/25 12:24:21;;;;;;;1.40;1.40;;;;;;;;;;1878229;75;25294;-43
2021/12/25 12:26:44;;;;;;;1.85;1.70;;;;;;;;;;1870916;75;26602;-43
2021/12/25 12:29:12;;;;;;;1.62;1.52;;;;;;;;;;1876988;75;26345;-47
2021/12/25 12:31:43;;;;;;;1.20;1.20;;;;;;;;;;1876311;75;26251;-43
2021/12/25 12:34:29;;;;;;;1.57;1.40;;;;;;;;;;1884358;75;26771;-46
2021/12/25 12:37:20;;;;;;;1.20;1.20;;;;;;;;;;1863714;76;26777;-45
2021/12/25 12:40:04;;;;;;;1.20;1.20;;;;;;;;;;1870456;75;26594;-44
2021/12/25 12:42:40;;;;;;;1.77;1.62;;;;;;;;;;1872647;76;26331;-43
2021/12/25 12:45:16;;;;;;;1.75;1.65;;;;;;;;;;1863319;76;26253;-42
2021/12/25 12:47:44;;;;;;;2.65;1.35;;;;;;;;;;1872292;75;26294;-42
2021/12/25 12:50:12;;;;;;;3.00;1.50;;;;;;;;;;1859652;76;26210;-41
2021/12/25 12:52:41;;;;;;;1.40;1.40;;;;;;;;;;1881427;76;26674;-41
2021/12/25 12:55:26;;;;;;;1.50;1.40;;;;;;;;;;1868732;76;26843;-43
2021/12/25 12:58:07;;;;;;;3.98;1.70;;;;;;;;;;1890493;75;26292;-42
2021/12/25 13:00:35;;;;;;;2.15;1.37;;;;;;;;;;1801611;75;26737;-44
2021/12/25 13:03:02;;;;;;;4.83;1.80;;;;;;;;;;1880266;75;26260;-45
2021/12/25 13:05:33;;;;;;;2.90;1.80;;;;;;;;;;1879223;75;26776;-38
2021/12/25 13:08:02;;;;;;;4.28;2.02;;;;;;;;;;1883293;75;26399;-38
2021/12/25 13:10:39;;;;;;;4.33;2.00;;;;;;;;;;1910423;75;26318;-38
2021/12/25 13:13:07;;;;;;;4.55;1.70;;;;;;;;;;1894864;75;26371;-38
2021/12/25 13:15:35;;;;;;;3.87;1.90;;;;;;;;;;1910471;75;26262;-39
2021/12/25 13:18:03;;;;;;;2.75;1.80;;;;;;;;;;1909790;75;26636;-38
2021/12/25 13:20:47;;;;;;;3.25;1.90;;;;;;;;;;1886814;75;26810;-38
2021/12/25 13:23:19;;;;;;;5.00;2.02;;;;;;;;;;1859730;75;26210;-38
2021/12/25 13:25:57;;;;;;;4.12;1.90;;;;;;;;;;1880300;75;26284;-37
2021/12/25 13:28:27;;;;;;;6.37;1.90;;;;;;;;;;1866952;76;26355;-38
2021/12/25 13:30:58;;;;;;;5.33;2.15;;;;;;;;;;1880551;76;26316;-38
2021/12/25 13:33:27;;;;;;;5.22;1.62;;;;;;;;;;1880072;75;26315;-38
2021/12/25 13:36:05;;;;;;;3.98;1.90;;;;;;;;;;1856050;75;26311;-37
2021/12/25 13:38:45;;;;;;;4.45;1.80;;;;;;;;;;1860697;75;26347;-37
2021/12/25 13:41:13;;;;;;;5.22;1.57;;;;;;;;;;1882633;75;26305;-38
2021/12/25 13:43:41;;;;;;;2.02;1.37;;;;;;;;;;1885039;75;26290;-38
2021/12/25 13:46:08;;;;;;;4.85;1.60;;;;;;;;;;1889822;75;26725;-38
2021/12/25 13:48:40;;;;;;;4.67;1.60;;;;;;;;;;1874704;75;26281;-38
2021/12/25 13:51:07;;;;;;;2.27;1.40;;;;;;;;;;1880511;76;26787;-37
2021/12/25 13:53:35;;;;;;;3.98;1.50;;;;;;;;;;1877742;75;26313;-38
2021/12/25 13:56:09;;;;;;;4.50;1.50;;;;;;;;;;1909736;75;26803;-43
2021/12/25 13:58:36;;;;;;;5.78;1.60;;;;;;;;;;1877312;75;25229;-45
2021/12/25 14:01:04;;;;;;;3.77;1.47;;;;;;;;;;1867005;75;26324;-45
2021/12/25 14:03:31;;;;;;;2.45;1.10;;;;;;;;;;1872003;76;26269;-37
2021/12/25 14:06:00;;;;;;;7.85;1.20;;;;;;;;;;1879751;76;26320;-38
2021/12/25 14:08:27;;;;;;;2.55;1.30;;;;;;;;;;1879025;75;26720;-47
2021/12/25 14:10:59;;;;;;;1.15;1.05;;;;;;;;;;1884695;75;26325;-47
2021/12/25 14:13:24;;;;;;;1.62;0.95;;;;;;;;;;1872992;75;26298;-47
2021/12/25 14:15:53;;;;;;;2.20;1.10;;;;;;;;;;1877751;75;25222;-47
2021/12/25 14:18:21;;;;;;;3.95;1.02;;;;;;;;;;1880813;75;26786;-48
2021/12/25 14:20:49;;;;;;;2.55;1.00;;;;;;;;;;1872589;75;26317;-47
2021/12/25 14:23:18;;;;;;;2.20;0.95;;;;;;;;;;1876513;75;26628;-46
2021/12/25 14:25:59;;;;;;;1.37;1.15;;;;;;;;;;1878667;75;26837;-48
2021/12/25 14:28:33;;;;;;;1.10;1.00;;;;;;;;;;1876246;75;26333;-47
2021/12/25 14:31:05;;;;;;;2.60;0.80;;;;;;;;;;1876413;75;26254;-47
2021/12/25 14:33:34;;;;;;;2.17;1.10;;;;;;;;;;1878705;75;26522;-46
2021/12/25 14:36:02;;;;;;;2.30;0.95;;;;;;;;;;1879740;75;26715;-46
2021/12/25 14:38:42;;;;;;;0.70;0.70;;;;;;;;;;1878379;75;26243;-47
2021/12/25 14:41:10;;;;;;;1.22;0.75;;;;;;;;;;1876583;75;26251;-47
2021/12/25 14:43:38;;;;;;;1.42;0.75;;;;;;;;;;1878470;74;26727;-47
2021/12/25 14:46:07;;;;;;;1.00;0.80;;;;;;;;;;1888082;75;26187;-47
2021/12/25 14:48:39;;;;;;;1.72;0.80;;;;;;;;;;1884635;75;26283;-46
2021/12/25 14:51:07;;;;;;;0.62;0.57;;;;;;;;;;1885486;74;26262;-47
2021/12/25 14:53:36;;;;;;;2.22;0.70;;;;;;;;;;1888361;74;27955;-46
2021/12/25 14:56:06;;;;;;;1.12;0.72;;;;;;;;;;1884985;75;26719;-45
2021/12/25 14:58:37;;;;;;;0.82;0.70;;;;;;;;;;1888792;74;27163;-45
2021/12/25 15:01:05;;;;;;;1.45;0.65;;;;;;;;;;1882930;74;26718;-45
2021/12/25 15:03:33;;;;;;;0.72;0.72;;;;;;;;;;1882146;76;26261;-45
2021/12/25 15:06:01;;;;;;;1.02;0.60;;;;;;;;;;1885498;74;26278;-46
2021/12/25 15:08:30;;;;;;;0.57;0.57;;;;;;;;;;1879526;76;26807;-47
2021/12/25 15:10:58;;;;;;;0.62;0.62;;;;;;;;;;1879443;76;26316;-46
2021/12/25 15:13:26;;;;;;;0.93;0.70;;;;;;;;;;1883283;75;26399;-46
2021/12/25 15:15:54;;;;;;;1.95;0.70;;;;;;;;;;1869450;76;26234;-46
2021/12/25 15:18:26;;;;;;;0.80;0.50;;;;;;;;;;1885723;76;26293;-46
2021/12/25 15:21:10;;;;;;;0.88;0.68;;;;;;;;;;1868850;76;25254;-49
2021/12/25 15:23:39;;;;;;;0.72;0.60;;;;;;;;;;1883385;76;26282;-47
2021/12/25 15:26:09;;;;;;;0.70;0.62;;;;;;;;;;1887273;76;26697;-47
2021/12/25 15:28:38;;;;;;;3.22;0.85;;;;;;;;;;1888721;76;26225;-49
2021/12/25 15:31:16;;;;;;;2.58;0.60;;;;;;;;;;1877720;75;26749;-46
2021/12/25 15:33:47;;;;;;;0.50;0.50;;;;;;;;;;1885542;76;26714;-47
2021/12/25 15:36:15;;;;;;;1.92;0.78;;;;;;;;;;1860474;76;26315;-46
2021/12/25 15:38:42;;;;;;;0.62;0.60;;;;;;;;;;1880715;76;26336;-46
2021/12/25 15:41:10;;;;;;;2.00;0.50;;;;;;;;;;1874771;76;25730;-48
2021/12/25 15:43:37;;;;;;;0.95;0.62;;;;;;;;;;1878415;76;26314;-46
2021/12/25 15:46:05;;;;;;;0.53;0.53;;;;;;;;;;1875972;75;26336;-50
2021/12/25 15:48:34;;;;;;;0.72;0.60;;;;;;;;;;1859617;76;26296;-51
2021/12/25 15:51:02;;;;;;;0.72;0.50;;;;;;;;;;1877613;76;26282;-50
2021/12/25 15:53:29;;;;;;;0.50;0.50;;;;;;;;;;1866577;76;26759;-46
2021/12/25 15:55:57;;;;;;;0.65;0.60;;;;;;;;;;1866769;76;26286;-50
2021/12/25 15:58:24;;;;;;;0.65;0.50;;;;;;;;;;1869125;76;26283;-48
2021/12/25 16:00:52;;;;;;;1.52;0.57;;;;;;;;;;1879536;76;26247;-46
2021/12/25 16:03:19;;;;;;;2.42;0.70;;;;;;;;;;1868630;75;26577;-45
2021/12/25 16:05:49;;;;;;;0.60;0.60;;;;;;;;;;1872235;75;26269;-45
2021/12/25 16:08:17;;;;;;;0.50;0.50;;;;;;;;;;1863926;75;26250;-46